sensor_id;sensor_type;location;lat;lon;timestamp;temperature;humidity
64718;DHT22;62506;46.070;14.492;2023-04-25T00:01:21;22.20;59.90
64718;DHT22;62506;46.070;14.492;2023-04-25T00:03:47;22.20;59.80
64718;DHT22;62506;46.070;14.492;2023-04-25T00:06:13;22.20;59.80
64718;DHT22;62506;46.070;14.492;2023-04-25T00:08:39;22.20;59.80
64718;DHT22;62506;46.070;14.492;2023-04-25T00:11:04;22.20;59.80
64718;DHT22;62506;46.070;14.492;2023-04-25T00:13:30;22.20;59.80
64718;DHT22;62506;46.070;14.492;2023-04-25T00:15:55;22.20;59.90
64718;DHT22;62506;46.070;14.492;2023-04-25T00:18:25;22.10;60.00
64718;DHT22;62506;46.070;14.492;2023-04-25T00:20:53;22.20;59.90
64718;DHT22;62506;46.070;14.492;2023-04-25T00:23:19;22.10;59.90
64718;DHT22;62506;46.070;14.492;2023-04-25T00:25:45;22.10;59.90
64718;DHT22;62506;46.070;14.492;2023-04-25T00:28:11;22.10;60.00
64718;DHT22;62506;46.070;14.492;2023-04-25T00:30:37;22.10;59.90
64718;DHT22;62506;46.070;14.492;2023-04-25T00:33:03;22.10;60.00
64718;DHT22;62506;46.070;14.492;2023-04-25T00:35:28;22.10;60.00
64718;DHT22;62506;46.070;14.492;2023-04-25T00:37:54;22.10;60.00
64718;DHT22;62506;46.070;14.492;2023-04-25T00:40:23;22.10;60.10
64718;DHT22;62506;46.070;14.492;2023-04-25T00:42:49;22.10;60.00
64718;DHT22;62506;46.070;14.492;2023-04-25T00:45:14;22.10;60.00
64718;DHT22;62506;46.070;14.492;2023-04-25T00:47:41;22.10;60.00
64718;DHT22;62506;46.070;14.492;2023-04-25T00:50:07;22.10;60.10
64718;DHT22;62506;46.070;14.492;2023-04-25T00:52:32;22.10;60.10
64718;DHT22;62506;46.070;14.492;2023-04-25T00:54:58;22.10;60.10
64718;DHT22;62506;46.070;14.492;2023-04-25T00:57:24;22.10;60.00
64718;DHT22;62506;46.070;14.492;2023-04-25T00:59:51;22.10;60.10
64718;DHT22;62506;46.070;14.492;2023-04-25T01:02:17;22.10;60.10
64718;DHT22;62506;46.070;14.492;2023-04-25T01:04:43;22.10;60.20
64718;DHT22;62506;46.070;14.492;2023-04-25T01:07:09;22.10;60.20
64718;DHT22;62506;46.070;14.492;2023-04-25T01:09:35;22.10;60.00
64718;DHT22;62506;46.070;14.492;2023-04-25T01:12:00;22.10;60.00
64718;DHT22;62506;46.070;14.492;2023-04-25T01:14:26;22.10;60.00
64718;DHT22;62506;46.070;14.492;2023-04-25T01:16:52;22.10;60.00
64718;DHT22;62506;46.070;14.492;2023-04-25T01:19:18;22.10;59.90
64718;DHT22;62506;46.070;14.492;2023-04-25T01:21:44;22.10;59.90
64718;DHT22;62506;46.070;14.492;2023-04-25T01:24:10;22.10;59.90
64718;DHT22;62506;46.070;14.492;2023-04-25T01:26:36;22.10;59.90
64718;DHT22;62506;46.070;14.492;2023-04-25T01:29:03;22.10;60.00
64718;DHT22;62506;46.070;14.492;2023-04-25T01:31:29;22.10;59.90
64718;DHT22;62506;46.070;14.492;2023-04-25T01:33:55;22.10;59.90
64718;DHT22;62506;46.070;14.492;2023-04-25T01:36:21;22.10;59.90
64718;DHT22;62506;46.070;14.492;2023-04-25T01:38:46;22.10;59.90
64718;DHT22;62506;46.070;14.492;2023-04-25T01:41:13;22.10;59.90
64718;DHT22;62506;46.070;14.492;2023-04-25T01:43:38;22.10;59.90
64718;DHT22;62506;46.070;14.492;2023-04-25T01:46:04;22.10;59.90
64718;DHT22;62506;46.070;14.492;2023-04-25T01:48:30;22.10;60.00
64718;DHT22;62506;46.070;14.492;2023-04-25T01:50:55;22.10;60.00
64718;DHT22;62506;46.070;14.492;2023-04-25T01:53:21;22.10;60.00
64718;DHT22;62506;46.070;14.492;2023-04-25T01:55:47;22.00;60.00
64718;DHT22;62506;46.070;14.492;2023-04-25T01:58:13;22.10;60.00
64718;DHT22;62506;46.070;14.492;2023-04-25T02:00:39;22.10;60.00
64718;DHT22;62506;46.070;14.492;2023-04-25T02:03:06;22.10;59.90
64718;DHT22;62506;46.070;14.492;2023-04-25T02:05:36;22.10;60.00
64718;DHT22;62506;46.070;14.492;2023-04-25T02:08:02;22.10;59.90
64718;DHT22;62506;46.070;14.492;2023-04-25T02:10:28;22.10;59.90
64718;DHT22;62506;46.070;14.492;2023-04-25T02:12:54;22.10;59.80
64718;DHT22;62506;46.070;14.492;2023-04-25T02:15:19;22.10;59.90
64718;DHT22;62506;46.070;14.492;2023-04-25T02:17:45;22.10;59.80
64718;DHT22;62506;46.070;14.492;2023-04-25T02:20:11;22.10;59.80
64718;DHT22;62506;46.070;14.492;2023-04-25T02:22:36;22.10;59.70
64718;DHT22;62506;46.070;14.492;2023-04-25T02:25:02;22.10;59.80
64718;DHT22;62506;46.070;14.492;2023-04-25T02:27:30;22.10;59.70
64718;DHT22;62506;46.070;14.492;2023-04-25T02:29:55;22.10;59.70
64718;DHT22;62506;46.070;14.492;2023-04-25T02:32:21;22.10;59.70
64718;DHT22;62506;46.070;14.492;2023-04-25T02:34:46;22.10;59.70
64718;DHT22;62506;46.070;14.492;2023-04-25T02:37:13;22.10;59.60
64718;DHT22;62506;46.070;14.492;2023-04-25T02:39:38;22.10;59.60
64718;DHT22;62506;46.070;14.492;2023-04-25T02:42:04;22.10;59.60
64718;DHT22;62506;46.070;14.492;2023-04-25T02:44:29;22.10;59.60
64718;DHT22;62506;46.070;14.492;2023-04-25T02:46:55;22.10;59.60
64718;DHT22;62506;46.070;14.492;2023-04-25T02:49:21;22.10;59.60
64718;DHT22;62506;46.070;14.492;2023-04-25T02:51:46;22.10;59.60
64718;DHT22;62506;46.070;14.492;2023-04-25T02:54:12;22.10;59.70
64718;DHT22;62506;46.070;14.492;2023-04-25T02:56:37;22.10;59.70
64718;DHT22;62506;46.070;14.492;2023-04-25T02:59:03;22.00;59.80
64718;DHT22;62506;46.070;14.492;2023-04-25T03:01:28;22.10;59.90
64718;DHT22;62506;46.070;14.492;2023-04-25T03:03:54;22.00;59.80
64718;DHT22;62506;46.070;14.492;2023-04-25T03:06:19;22.00;59.80
64718;DHT22;62506;46.070;14.492;2023-04-25T03:08:45;22.00;59.80
64718;DHT22;62506;46.070;14.492;2023-04-25T03:11:10;22.00;59.90
64718;DHT22;62506;46.070;14.492;2023-04-25T03:13:36;22.00;59.80
64718;DHT22;62506;46.070;14.492;2023-04-25T03:16:02;22.00;59.80
64718;DHT22;62506;46.070;14.492;2023-04-25T03:18:27;22.00;59.80
64718;DHT22;62506;46.070;14.492;2023-04-25T03:20:53;22.00;59.80
64718;DHT22;62506;46.070;14.492;2023-04-25T03:23:18;22.00;59.80
64718;DHT22;62506;46.070;14.492;2023-04-25T03:25:44;22.00;59.80
64718;DHT22;62506;46.070;14.492;2023-04-25T03:28:09;22.00;59.80
64718;DHT22;62506;46.070;14.492;2023-04-25T03:30:35;22.00;59.80
64718;DHT22;62506;46.070;14.492;2023-04-25T03:33:00;22.00;59.90
64718;DHT22;62506;46.070;14.492;2023-04-25T03:35:26;22.00;59.80
64718;DHT22;62506;46.070;14.492;2023-04-25T03:37:52;22.00;59.80
64718;DHT22;62506;46.070;14.492;2023-04-25T03:40:17;22.00;59.80
64718;DHT22;62506;46.070;14.492;2023-04-25T03:42:43;22.00;59.80
64718;DHT22;62506;46.070;14.492;2023-04-25T03:45:08;22.00;59.80
64718;DHT22;62506;46.070;14.492;2023-04-25T03:47:34;22.00;59.80
64718;DHT22;62506;46.070;14.492;2023-04-25T03:49:59;22.00;59.90
64718;DHT22;62506;46.070;14.492;2023-04-25T03:52:26;22.00;59.80
64718;DHT22;62506;46.070;14.492;2023-04-25T03:54:52;22.00;59.70
64718;DHT22;62506;46.070;14.492;2023-04-25T03:57:18;22.00;60.00
64718;DHT22;62506;46.070;14.492;2023-04-25T03:59:43;22.00;59.90
64718;DHT22;62506;46.070;14.492;2023-04-25T04:02:09;22.10;59.90
64718;DHT22;62506;46.070;14.492;2023-04-25T04:04:35;22.10;60.00
64718;DHT22;62506;46.070;14.492;2023-04-25T04:07:01;22.10;60.20
64718;DHT22;62506;46.070;14.492;2023-04-25T04:09:27;22.10;60.30
64718;DHT22;62506;46.070;14.492;2023-04-25T04:11:53;22.10;60.60
64718;DHT22;62506;46.070;14.492;2023-04-25T04:14:18;22.10;60.80
64718;DHT22;62506;46.070;14.492;2023-04-25T04:16:44;22.10;61.00
64718;DHT22;62506;46.070;14.492;2023-04-25T04:19:10;22.10;61.20
64718;DHT22;62506;46.070;14.492;2023-04-25T04:21:35;22.10;61.60
64718;DHT22;62506;46.070;14.492;2023-04-25T04:24:01;22.20;61.70
64718;DHT22;62506;46.070;14.492;2023-04-25T04:26:27;22.20;61.80
64718;DHT22;62506;46.070;14.492;2023-04-25T04:28:52;22.20;61.50
64718;DHT22;62506;46.070;14.492;2023-04-25T04:31:19;22.20;61.30
64718;DHT22;62506;46.070;14.492;2023-04-25T04:33:45;22.20;61.30
64718;DHT22;62506;46.070;14.492;2023-04-25T04:36:11;22.20;61.20
64718;DHT22;62506;46.070;14.492;2023-04-25T04:38:37;22.20;61.20
64718;DHT22;62506;46.070;14.492;2023-04-25T04:41:02;22.30;61.50
64718;DHT22;62506;46.070;14.492;2023-04-25T04:43:28;22.30;61.50
64718;DHT22;62506;46.070;14.492;2023-04-25T04:45:55;22.20;61.40
64718;DHT22;62506;46.070;14.492;2023-04-25T04:48:23;22.20;60.80
64718;DHT22;62506;46.070;14.492;2023-04-25T04:50:49;22.20;58.70
64718;DHT22;62506;46.070;14.492;2023-04-25T04:53:14;22.10;58.80
64718;DHT22;62506;46.070;14.492;2023-04-25T04:55:40;22.10;59.40
64718;DHT22;62506;46.070;14.492;2023-04-25T04:58:06;22.10;59.60
64718;DHT22;62506;46.070;14.492;2023-04-25T05:00:32;22.10;58.10
64718;DHT22;62506;46.070;14.492;2023-04-25T05:02:58;22.10;58.70
64718;DHT22;62506;46.070;14.492;2023-04-25T05:05:24;22.10;59.20
64718;DHT22;62506;46.070;14.492;2023-04-25T05:07:50;22.10;59.40
64718;DHT22;62506;46.070;14.492;2023-04-25T05:10:16;22.10;59.30
64718;DHT22;62506;46.070;14.492;2023-04-25T05:12:42;22.10;59.40
64718;DHT22;62506;46.070;14.492;2023-04-25T05:15:07;22.10;59.50
64718;DHT22;62506;46.070;14.492;2023-04-25T05:17:33;22.20;60.20
64718;DHT22;62506;46.070;14.492;2023-04-25T05:19:58;22.20;59.70
64718;DHT22;62506;46.070;14.492;2023-04-25T05:22:24;22.20;59.40
64718;DHT22;62506;46.070;14.492;2023-04-25T05:24:49;22.20;59.30
64718;DHT22;62506;46.070;14.492;2023-04-25T05:27:17;22.20;59.30
64718;DHT22;62506;46.070;14.492;2023-04-25T05:29:42;22.20;59.30
64718;DHT22;62506;46.070;14.492;2023-04-25T05:32:08;22.20;59.20
64718;DHT22;62506;46.070;14.492;2023-04-25T05:34:34;22.20;59.20
64718;DHT22;62506;46.070;14.492;2023-04-25T05:37:00;22.20;59.00
64718;DHT22;62506;46.070;14.492;2023-04-25T05:39:26;22.30;59.00
64718;DHT22;62506;46.070;14.492;2023-04-25T05:41:52;22.30;58.90
64718;DHT22;62506;46.070;14.492;2023-04-25T05:44:17;22.30;59.00
64718;DHT22;62506;46.070;14.492;2023-04-25T05:46:43;22.30;58.80
64718;DHT22;62506;46.070;14.492;2023-04-25T05:49:08;22.30;59.00
64718;DHT22;62506;46.070;14.492;2023-04-25T05:51:37;22.30;59.00
64718;DHT22;62506;46.070;14.492;2023-04-25T05:54:03;22.30;58.90
64718;DHT22;62506;46.070;14.492;2023-04-25T05:56:29;22.30;58.90
64718;DHT22;62506;46.070;14.492;2023-04-25T05:58:54;22.30;58.90
64718;DHT22;62506;46.070;14.492;2023-04-25T06:01:21;22.20;58.70
64718;DHT22;62506;46.070;14.492;2023-04-25T06:03:47;22.20;58.80
64718;DHT22;62506;46.070;14.492;2023-04-25T06:06:12;22.20;58.60
64718;DHT22;62506;46.070;14.492;2023-04-25T06:08:38;22.20;58.90
64718;DHT22;62506;46.070;14.492;2023-04-25T06:11:04;22.20;59.00
64718;DHT22;62506;46.070;14.492;2023-04-25T06:13:30;22.10;58.90
64718;DHT22;62506;46.070;14.492;2023-04-25T06:15:55;22.20;59.00
64718;DHT22;62506;46.070;14.492;2023-04-25T06:18:21;22.10;58.90
64718;DHT22;62506;46.070;14.492;2023-04-25T06:20:46;22.10;58.90
64718;DHT22;62506;46.070;14.492;2023-04-25T06:23:12;22.10;59.00
64718;DHT22;62506;46.070;14.492;2023-04-25T06:25:37;22.10;58.90
64718;DHT22;62506;46.070;14.492;2023-04-25T06:28:03;22.10;59.00
64718;DHT22;62506;46.070;14.492;2023-04-25T06:30:28;22.10;59.00
64718;DHT22;62506;46.070;14.492;2023-04-25T06:32:55;22.10;59.00
64718;DHT22;62506;46.070;14.492;2023-04-25T06:35:20;22.10;58.90
64718;DHT22;62506;46.070;14.492;2023-04-25T06:37:46;22.10;58.90
64718;DHT22;62506;46.070;14.492;2023-04-25T06:40:11;22.10;58.80
64718;DHT22;62506;46.070;14.492;2023-04-25T06:42:37;22.10;58.80
64718;DHT22;62506;46.070;14.492;2023-04-25T06:45:03;22.10;58.80
64718;DHT22;62506;46.070;14.492;2023-04-25T06:47:28;22.10;58.60
64718;DHT22;62506;46.070;14.492;2023-04-25T06:49:55;22.10;58.60
64718;DHT22;62506;46.070;14.492;2023-04-25T06:52:20;22.10;58.70
64718;DHT22;62506;46.070;14.492;2023-04-25T06:54:46;22.10;58.50
64718;DHT22;62506;46.070;14.492;2023-04-25T06:57:12;22.10;58.50
64718;DHT22;62506;46.070;14.492;2023-04-25T06:59:37;22.10;58.50
64718;DHT22;62506;46.070;14.492;2023-04-25T07:02:03;22.10;58.60
64718;DHT22;62506;46.070;14.492;2023-04-25T07:04:28;22.10;58.50
64718;DHT22;62506;46.070;14.492;2023-04-25T07:06:54;22.10;58.50
64718;DHT22;62506;46.070;14.492;2023-04-25T07:09:20;22.10;58.40
64718;DHT22;62506;46.070;14.492;2023-04-25T07:11:45;22.10;58.40
64718;DHT22;62506;46.070;14.492;2023-04-25T07:14:11;22.10;58.40
64718;DHT22;62506;46.070;14.492;2023-04-25T07:16:36;22.10;58.30
64718;DHT22;62506;46.070;14.492;2023-04-25T07:19:02;22.10;58.30
64718;DHT22;62506;46.070;14.492;2023-04-25T07:21:28;22.10;58.30
64718;DHT22;62506;46.070;14.492;2023-04-25T07:23:53;22.10;58.20
64718;DHT22;62506;46.070;14.492;2023-04-25T07:26:19;22.10;58.20
64718;DHT22;62506;46.070;14.492;2023-04-25T07:28:44;22.10;58.20
64718;DHT22;62506;46.070;14.492;2023-04-25T07:31:11;22.20;58.20
64718;DHT22;62506;46.070;14.492;2023-04-25T07:33:36;22.20;58.10
64718;DHT22;62506;46.070;14.492;2023-04-25T07:36:02;22.20;58.10
64718;DHT22;62506;46.070;14.492;2023-04-25T07:38:27;22.20;58.00
64718;DHT22;62506;46.070;14.492;2023-04-25T07:40:53;22.20;58.10
64718;DHT22;62506;46.070;14.492;2023-04-25T07:43:18;22.20;58.00
64718;DHT22;62506;46.070;14.492;2023-04-25T07:45:44;22.20;57.90
64718;DHT22;62506;46.070;14.492;2023-04-25T07:48:10;22.20;57.90
64718;DHT22;62506;46.070;14.492;2023-04-25T07:50:36;22.20;57.80
64718;DHT22;62506;46.070;14.492;2023-04-25T07:53:01;22.20;57.80
64718;DHT22;62506;46.070;14.492;2023-04-25T07:55:27;22.20;57.80
64718;DHT22;62506;46.070;14.492;2023-04-25T07:57:53;22.20;57.70
64718;DHT22;62506;46.070;14.492;2023-04-25T08:00:18;22.20;57.70
64718;DHT22;62506;46.070;14.492;2023-04-25T08:02:44;22.20;57.60
64718;DHT22;62506;46.070;14.492;2023-04-25T08:05:10;22.20;57.60
64718;DHT22;62506;46.070;14.492;2023-04-25T08:07:39;22.30;57.60
64718;DHT22;62506;46.070;14.492;2023-04-25T08:10:06;22.30;57.50
64718;DHT22;62506;46.070;14.492;2023-04-25T08:12:31;22.30;57.50
64718;DHT22;62506;46.070;14.492;2023-04-25T08:14:57;22.30;57.40
64718;DHT22;62506;46.070;14.492;2023-04-25T08:17:23;22.30;57.40
64718;DHT22;62506;46.070;14.492;2023-04-25T08:19:48;22.30;57.30
64718;DHT22;62506;46.070;14.492;2023-04-25T08:22:14;22.30;57.30
64718;DHT22;62506;46.070;14.492;2023-04-25T08:24:41;22.30;57.20
64718;DHT22;62506;46.070;14.492;2023-04-25T08:27:06;22.30;57.20
64718;DHT22;62506;46.070;14.492;2023-04-25T08:29:33;22.40;57.20
64718;DHT22;62506;46.070;14.492;2023-04-25T08:31:58;22.40;57.10
64718;DHT22;62506;46.070;14.492;2023-04-25T08:34:24;22.40;57.10
64718;DHT22;62506;46.070;14.492;2023-04-25T08:36:50;22.40;57.10
64718;DHT22;62506;46.070;14.492;2023-04-25T08:39:16;22.40;56.80
64718;DHT22;62506;46.070;14.492;2023-04-25T08:41:42;22.50;56.80
64718;DHT22;62506;46.070;14.492;2023-04-25T08:44:09;22.50;56.80
64718;DHT22;62506;46.070;14.492;2023-04-25T08:46:35;22.50;56.80
64718;DHT22;62506;46.070;14.492;2023-04-25T08:49:02;22.40;56.80
64718;DHT22;62506;46.070;14.492;2023-04-25T08:51:31;22.40;56.80
64718;DHT22;62506;46.070;14.492;2023-04-25T08:53:57;22.40;56.80
64718;DHT22;62506;46.070;14.492;2023-04-25T08:56:26;22.40;56.80
64718;DHT22;62506;46.070;14.492;2023-04-25T08:58:52;22.40;56.80
64718;DHT22;62506;46.070;14.492;2023-04-25T09:01:18;22.40;56.90
64718;DHT22;62506;46.070;14.492;2023-04-25T09:03:44;22.40;56.90
64718;DHT22;62506;46.070;14.492;2023-04-25T09:06:12;22.40;56.80
64718;DHT22;62506;46.070;14.492;2023-04-25T09:08:38;22.40;56.80
64718;DHT22;62506;46.070;14.492;2023-04-25T09:11:06;22.40;56.70
64718;DHT22;62506;46.070;14.492;2023-04-25T09:13:31;22.40;56.80
64718;DHT22;62506;46.070;14.492;2023-04-25T09:15:57;22.40;56.70
64718;DHT22;62506;46.070;14.492;2023-04-25T09:20:50;22.30;56.20
64718;DHT22;62506;46.070;14.492;2023-04-25T09:23:16;22.30;56.40
64718;DHT22;62506;46.070;14.492;2023-04-25T09:25:45;22.30;56.50
64718;DHT22;62506;46.070;14.492;2023-04-25T09:28:12;22.30;56.50
64718;DHT22;62506;46.070;14.492;2023-04-25T09:30:37;22.30;56.60
64718;DHT22;62506;46.070;14.492;2023-04-25T09:33:03;22.30;56.50
64718;DHT22;62506;46.070;14.492;2023-04-25T09:35:30;22.30;56.50
64718;DHT22;62506;46.070;14.492;2023-04-25T09:38:00;22.30;56.50
64718;DHT22;62506;46.070;14.492;2023-04-25T09:40:26;22.30;56.50
64718;DHT22;62506;46.070;14.492;2023-04-25T09:42:51;22.30;56.50
64718;DHT22;62506;46.070;14.492;2023-04-25T09:45:17;22.30;56.60
64718;DHT22;62506;46.070;14.492;2023-04-25T09:47:42;22.30;56.60
64718;DHT22;62506;46.070;14.492;2023-04-25T09:50:14;22.30;57.30
64718;DHT22;62506;46.070;14.492;2023-04-25T09:52:41;22.30;56.70
64718;DHT22;62506;46.070;14.492;2023-04-25T09:55:06;22.30;56.70
64718;DHT22;62506;46.070;14.492;2023-04-25T09:57:32;22.30;56.70
64718;DHT22;62506;46.070;14.492;2023-04-25T09:59:58;22.30;56.60
64718;DHT22;62506;46.070;14.492;2023-04-25T10:02:25;22.30;56.50
64718;DHT22;62506;46.070;14.492;2023-04-25T10:04:52;22.40;56.40
64718;DHT22;62506;46.070;14.492;2023-04-25T10:07:24;22.30;56.50
64718;DHT22;62506;46.070;14.492;2023-04-25T10:09:53;22.30;56.60
64718;DHT22;62506;46.070;14.492;2023-04-25T10:12:20;22.40;56.70
64718;DHT22;62506;46.070;14.492;2023-04-25T10:14:46;22.40;56.60
64718;DHT22;62506;46.070;14.492;2023-04-25T10:17:12;22.40;57.30
64718;DHT22;62506;46.070;14.492;2023-04-25T10:19:39;22.40;56.60
64718;DHT22;62506;46.070;14.492;2023-04-25T10:22:08;22.40;56.50
64718;DHT22;62506;46.070;14.492;2023-04-25T10:24:37;22.40;56.40
64718;DHT22;62506;46.070;14.492;2023-04-25T10:27:04;22.40;55.50
64718;DHT22;62506;46.070;14.492;2023-04-25T10:29:30;22.40;56.20
64718;DHT22;62506;46.070;14.492;2023-04-25T10:31:55;22.40;56.30
64718;DHT22;62506;46.070;14.492;2023-04-25T10:34:37;22.40;56.40
64718;DHT22;62506;46.070;14.492;2023-04-25T10:37:04;22.40;56.40
64718;DHT22;62506;46.070;14.492;2023-04-25T10:39:29;22.40;56.40
64718;DHT22;62506;46.070;14.492;2023-04-25T10:41:58;22.40;56.50
64718;DHT22;62506;46.070;14.492;2023-04-25T10:44:27;22.40;55.90
64718;DHT22;62506;46.070;14.492;2023-04-25T10:46:57;22.40;55.40
64718;DHT22;62506;46.070;14.492;2023-04-25T10:49:42;22.30;52.90
64718;DHT22;62506;46.070;14.492;2023-04-25T10:54:51;22.30;55.10
64718;DHT22;62506;46.070;14.492;2023-04-25T10:57:30;22.40;56.10
64718;DHT22;62506;46.070;14.492;2023-04-25T11:00:06;22.40;55.40
64718;DHT22;62506;46.070;14.492;2023-04-25T11:02:36;22.40;55.40
64718;DHT22;62506;46.070;14.492;2023-04-25T11:05:02;22.50;55.30
64718;DHT22;62506;46.070;14.492;2023-04-25T11:10:03;22.40;55.40
64718;DHT22;62506;46.070;14.492;2023-04-25T11:12:30;22.40;55.40
64718;DHT22;62506;46.070;14.492;2023-04-25T11:15:14;22.40;55.50
64718;DHT22;62506;46.070;14.492;2023-04-25T11:17:40;22.40;55.60
64718;DHT22;62506;46.070;14.492;2023-04-25T11:20:06;22.40;55.70
64718;DHT22;62506;46.070;14.492;2023-04-25T11:22:34;22.30;56.40
64718;DHT22;62506;46.070;14.492;2023-04-25T11:25:04;22.30;55.80
64718;DHT22;62506;46.070;14.492;2023-04-25T11:27:29;22.30;55.80
64718;DHT22;62506;46.070;14.492;2023-04-25T11:29:55;22.30;55.80
64718;DHT22;62506;46.070;14.492;2023-04-25T11:32:21;22.30;56.00
64718;DHT22;62506;46.070;14.492;2023-04-25T11:34:46;22.20;55.90
64718;DHT22;62506;46.070;14.492;2023-04-25T11:37:12;22.20;56.00
64718;DHT22;62506;46.070;14.492;2023-04-25T11:39:37;22.20;56.00
64718;DHT22;62506;46.070;14.492;2023-04-25T11:42:03;22.20;56.10
64718;DHT22;62506;46.070;14.492;2023-04-25T11:44:29;22.20;56.00
64718;DHT22;62506;46.070;14.492;2023-04-25T11:46:55;22.20;56.10
64718;DHT22;62506;46.070;14.492;2023-04-25T11:49:20;22.20;56.10
64718;DHT22;62506;46.070;14.492;2023-04-25T11:51:47;22.20;56.20
64718;DHT22;62506;46.070;14.492;2023-04-25T11:54:13;22.20;56.20
64718;DHT22;62506;46.070;14.492;2023-04-25T11:56:43;22.10;56.10
64718;DHT22;62506;46.070;14.492;2023-04-25T11:59:08;22.20;56.20
64718;DHT22;62506;46.070;14.492;2023-04-25T12:01:35;22.20;56.30
64718;DHT22;62506;46.070;14.492;2023-04-25T12:06:43;22.10;56.20
64718;DHT22;62506;46.070;14.492;2023-04-25T12:09:10;22.10;56.20
64718;DHT22;62506;46.070;14.492;2023-04-25T12:14:08;22.10;56.30
64718;DHT22;62506;46.070;14.492;2023-04-25T12:16:40;22.10;56.30
64718;DHT22;62506;46.070;14.492;2023-04-25T12:19:06;22.10;56.60
64718;DHT22;62506;46.070;14.492;2023-04-25T12:21:32;22.10;56.40
64718;DHT22;62506;46.070;14.492;2023-04-25T12:24:21;22.10;56.40
64718;DHT22;62506;46.070;14.492;2023-04-25T12:29:19;22.10;56.40
64718;DHT22;62506;46.070;14.492;2023-04-25T12:31:45;22.10;56.40
64718;DHT22;62506;46.070;14.492;2023-04-25T12:34:11;22.10;56.50
64718;DHT22;62506;46.070;14.492;2023-04-25T12:36:37;22.00;56.50
64718;DHT22;62506;46.070;14.492;2023-04-25T12:39:03;22.00;56.50
64718;DHT22;62506;46.070;14.492;2023-04-25T12:41:29;22.10;56.40
64718;DHT22;62506;46.070;14.492;2023-04-25T12:43:57;22.10;56.40
64718;DHT22;62506;46.070;14.492;2023-04-25T12:46:23;22.10;56.40
64718;DHT22;62506;46.070;14.492;2023-04-25T12:48:49;22.10;56.40
64718;DHT22;62506;46.070;14.492;2023-04-25T12:51:15;22.10;56.30
64718;DHT22;62506;46.070;14.492;2023-04-25T12:53:40;22.10;56.20
64718;DHT22;62506;46.070;14.492;2023-04-25T12:56:06;22.10;56.20
64718;DHT22;62506;46.070;14.492;2023-04-25T12:58:32;22.10;56.20
64718;DHT22;62506;46.070;14.492;2023-04-25T13:00:59;22.10;56.10
64718;DHT22;62506;46.070;14.492;2023-04-25T13:03:24;22.10;56.10
64718;DHT22;62506;46.070;14.492;2023-04-25T13:05:51;22.10;56.20
64718;DHT22;62506;46.070;14.492;2023-04-25T13:08:20;22.10;56.10
64718;DHT22;62506;46.070;14.492;2023-04-25T13:10:49;22.20;56.10
64718;DHT22;62506;46.070;14.492;2023-04-25T13:13:15;22.20;56.20
64718;DHT22;62506;46.070;14.492;2023-04-25T13:15:41;22.20;56.10
64718;DHT22;62506;46.070;14.492;2023-04-25T13:18:07;22.20;55.10
64718;DHT22;62506;46.070;14.492;2023-04-25T13:20:33;22.20;55.60
64718;DHT22;62506;46.070;14.492;2023-04-25T13:22:58;22.20;55.70
64718;DHT22;62506;46.070;14.492;2023-04-25T13:25:24;22.20;55.70
64718;DHT22;62506;46.070;14.492;2023-04-25T13:27:50;22.20;56.50
64718;DHT22;62506;46.070;14.492;2023-04-25T13:30:15;22.20;55.70
64718;DHT22;62506;46.070;14.492;2023-04-25T13:32:41;22.30;55.70
64718;DHT22;62506;46.070;14.492;2023-04-25T13:35:10;22.20;55.80
64718;DHT22;62506;46.070;14.492;2023-04-25T13:37:36;22.30;55.70
64718;DHT22;62506;46.070;14.492;2023-04-25T13:40:03;22.30;55.90
64718;DHT22;62506;46.070;14.492;2023-04-25T13:42:30;22.30;55.80
64718;DHT22;62506;46.070;14.492;2023-04-25T13:44:56;22.30;55.80
64718;DHT22;62506;46.070;14.492;2023-04-25T13:47:25;22.30;55.80
64718;DHT22;62506;46.070;14.492;2023-04-25T13:49:50;22.30;54.70
64718;DHT22;62506;46.070;14.492;2023-04-25T13:52:16;22.30;52.90
64718;DHT22;62506;46.070;14.492;2023-04-25T13:54:42;22.20;54.40
64718;DHT22;62506;46.070;14.492;2023-04-25T13:57:07;22.30;54.80
64718;DHT22;62506;46.070;14.492;2023-04-25T13:59:33;22.30;52.80
64718;DHT22;62506;46.070;14.492;2023-04-25T14:01:59;22.20;53.90
64718;DHT22;62506;46.070;14.492;2023-04-25T14:04:24;22.20;54.40
64718;DHT22;62506;46.070;14.492;2023-04-25T14:06:50;22.20;54.80
64718;DHT22;62506;46.070;14.492;2023-04-25T14:09:16;22.30;55.00
64718;DHT22;62506;46.070;14.492;2023-04-25T14:11:42;22.30;54.80
64718;DHT22;62506;46.070;14.492;2023-04-25T14:14:07;22.30;55.00
64718;DHT22;62506;46.070;14.492;2023-04-25T14:16:34;22.30;55.00
64718;DHT22;62506;46.070;14.492;2023-04-25T14:18:59;22.30;54.20
64718;DHT22;62506;46.070;14.492;2023-04-25T14:21:26;22.30;53.70
64718;DHT22;62506;46.070;14.492;2023-04-25T14:23:52;22.30;54.50
64718;DHT22;62506;46.070;14.492;2023-04-25T14:26:18;22.30;54.90
64718;DHT22;62506;46.070;14.492;2023-04-25T14:28:43;22.30;55.00
64718;DHT22;62506;46.070;14.492;2023-04-25T14:31:09;22.30;55.00
64718;DHT22;62506;46.070;14.492;2023-04-25T14:33:34;22.30;55.00
64718;DHT22;62506;46.070;14.492;2023-04-25T14:36:00;22.30;55.00
64718;DHT22;62506;46.070;14.492;2023-04-25T14:38:26;22.30;55.60
64718;DHT22;62506;46.070;14.492;2023-04-25T14:40:52;22.30;55.30
64718;DHT22;62506;46.070;14.492;2023-04-25T14:43:19;22.30;55.50
64718;DHT22;62506;46.070;14.492;2023-04-25T14:45:44;22.30;55.40
64718;DHT22;62506;46.070;14.492;2023-04-25T14:48:10;22.40;53.80
64718;DHT22;62506;46.070;14.492;2023-04-25T14:50:36;22.30;54.00
64718;DHT22;62506;46.070;14.492;2023-04-25T14:53:02;22.30;54.40
64718;DHT22;62506;46.070;14.492;2023-04-25T14:55:27;22.30;54.60
64718;DHT22;62506;46.070;14.492;2023-04-25T14:57:53;22.30;54.60
64718;DHT22;62506;46.070;14.492;2023-04-25T15:00:20;22.30;54.70
64718;DHT22;62506;46.070;14.492;2023-04-25T15:02:50;22.30;54.90
64718;DHT22;62506;46.070;14.492;2023-04-25T15:05:16;22.20;54.90
64718;DHT22;62506;46.070;14.492;2023-04-25T15:07:41;22.30;55.10
64718;DHT22;62506;46.070;14.492;2023-04-25T15:10:07;22.30;55.10
64718;DHT22;62506;46.070;14.492;2023-04-25T15:12:39;22.20;55.50
64718;DHT22;62506;46.070;14.492;2023-04-25T15:15:04;22.20;55.30
64718;DHT22;62506;46.070;14.492;2023-04-25T15:17:31;22.20;55.50
64718;DHT22;62506;46.070;14.492;2023-04-25T15:19:57;22.20;55.50
64718;DHT22;62506;46.070;14.492;2023-04-25T15:22:22;22.20;55.60
64718;DHT22;62506;46.070;14.492;2023-04-25T15:24:48;22.20;55.30